sensor_id;sensor_type;location;lat;lon;timestamp;temperature;humidity
24638;DHT22;12773;50.162;8.548;2022-11-12T00:00:05;8.10;99.90
24638;DHT22;12773;50.162;8.548;2022-11-12T00:02:53;8.10;99.90
24638;DHT22;12773;50.162;8.548;2022-11-12T00:05:40;8.00;99.90
24638;DHT22;12773;50.162;8.548;2022-11-12T00:08:28;7.90;99.90
24638;DHT22;12773;50.162;8.548;2022-11-12T00:11:15;7.90;99.90
24638;DHT22;12773;50.162;8.548;2022-11-12T00:14:03;7.90;99.90
24638;DHT22;12773;50.162;8.548;2022-11-12T00:16:50;7.90;99.90
24638;DHT22;12773;50.162;8.548;2022-11-12T00:19:38;7.90;99.90
24638;DHT22;12773;50.162;8.548;2022-11-12T00:22:25;8.00;99.90
24638;DHT22;12773;50.162;8.548;2022-11-12T00:25:13;8.20;99.90
24638;DHT22;12773;50.162;8.548;2022-11-12T00:28:02;8.10;99.90
24638;DHT22;12773;50.162;8.548;2022-11-12T00:30:50;8.00;99.90
24638;DHT22;12773;50.162;8.548;2022-11-12T00:33:42;7.90;99.90
24638;DHT22;12773;50.162;8.548;2022-11-12T00:36:30;7.80;99.90
24638;DHT22;12773;50.162;8.548;2022-11-12T00:39:17;7.90;99.90
24638;DHT22;12773;50.162;8.548;2022-11-12T00:42:04;7.80;99.90
24638;DHT22;12773;50.162;8.548;2022-11-12T00:44:52;7.80;99.90
24638;DHT22;12773;50.162;8.548;2022-11-12T00:47:39;7.60;99.90
24638;DHT22;12773;50.162;8.548;2022-11-12T00:50:27;7.50;99.90
24638;DHT22;12773;50.162;8.548;2022-11-12T00:53:14;7.50;99.90
24638;DHT22;12773;50.162;8.548;2022-11-12T00:56:04;7.50;99.90
24638;DHT22;12773;50.162;8.548;2022-11-12T00:58:52;7.60;99.90
24638;DHT22;12773;50.162;8.548;2022-11-12T01:01:39;7.60;99.90
24638;DHT22;12773;50.162;8.548;2022-11-12T01:04:27;7.50;99.90
24638;DHT22;12773;50.162;8.548;2022-11-12T01:07:15;7.40;99.90
24638;DHT22;12773;50.162;8.548;2022-11-12T01:10:02;7.40;99.90
24638;DHT22;12773;50.162;8.548;2022-11-12T01:12:50;7.30;99.90
24638;DHT22;12773;50.162;8.548;2022-11-12T01:15:41;7.30;99.90
24638;DHT22;12773;50.162;8.548;2022-11-12T01:18:28;7.20;99.90
24638;DHT22;12773;50.162;8.548;2022-11-12T01:21:16;7.30;99.90
24638;DHT22;12773;50.162;8.548;2022-11-12T01:24:03;7.30;99.90
24638;DHT22;12773;50.162;8.548;2022-11-12T01:26:51;7.30;99.90
24638;DHT22;12773;50.162;8.548;2022-11-12T01:29:38;7.40;99.90
24638;DHT22;12773;50.162;8.548;2022-11-12T01:32:26;7.50;99.90
24638;DHT22;12773;50.162;8.548;2022-11-12T01:35:14;7.50;99.90
24638;DHT22;12773;50.162;8.548;2022-11-12T01:38:01;7.50;99.90
24638;DHT22;12773;50.162;8.548;2022-11-12T01:40:49;7.50;99.90
24638;DHT22;12773;50.162;8.548;2022-11-12T01:43:36;7.50;99.90
24638;DHT22;12773;50.162;8.548;2022-11-12T01:46:26;7.60;99.90
24638;DHT22;12773;50.162;8.548;2022-11-12T01:49:25;7.50;99.90
24638;DHT22;12773;50.162;8.548;2022-11-12T01:52:16;7.50;99.90
24638;DHT22;12773;50.162;8.548;2022-11-12T01:55:10;7.40;99.90
24638;DHT22;12773;50.162;8.548;2022-11-12T01:58:09;7.40;99.90
24638;DHT22;12773;50.162;8.548;2022-11-12T02:00:49;7.40;99.90
24638;DHT22;12773;50.162;8.548;2022-11-12T02:03:36;7.30;99.90
24638;DHT22;12773;50.162;8.548;2022-11-12T02:06:24;7.30;99.90
24638;DHT22;12773;50.162;8.548;2022-11-12T02:09:12;7.30;99.90
24638;DHT22;12773;50.162;8.548;2022-11-12T02:12:00;7.30;99.90
24638;DHT22;12773;50.162;8.548;2022-11-12T02:14:48;7.40;99.90
24638;DHT22;12773;50.162;8.548;2022-11-12T02:17:36;7.40;99.90
24638;DHT22;12773;50.162;8.548;2022-11-12T02:20:23;7.30;99.90
24638;DHT22;12773;50.162;8.548;2022-11-12T02:23:10;7.30;99.90
24638;DHT22;12773;50.162;8.548;2022-11-12T02:26:01;7.40;99.90
24638;DHT22;12773;50.162;8.548;2022-11-12T02:28:48;7.40;99.90
24638;DHT22;12773;50.162;8.548;2022-11-12T02:31:36;7.30;99.90
24638;DHT22;12773;50.162;8.548;2022-11-12T02:34:23;7.30;99.90
24638;DHT22;12773;50.162;8.548;2022-11-12T02:37:10;7.30;99.90
24638;DHT22;12773;50.162;8.548;2022-11-12T02:39:58;7.30;99.90
24638;DHT22;12773;50.162;8.548;2022-11-12T02:42:45;7.30;99.90
24638;DHT22;12773;50.162;8.548;2022-11-12T02:45:32;7.30;99.90
24638;DHT22;12773;50.162;8.548;2022-11-12T02:48:20;7.30;99.90
24638;DHT22;12773;50.162;8.548;2022-11-12T02:51:07;7.40;99.90
24638;DHT22;12773;50.162;8.548;2022-11-12T02:53:54;7.30;99.90
24638;DHT22;12773;50.162;8.548;2022-11-12T02:56:42;7.40;99.90
24638;DHT22;12773;50.162;8.548;2022-11-12T02:59:29;7.50;99.90
24638;DHT22;12773;50.162;8.548;2022-11-12T03:02:16;7.50;99.90
24638;DHT22;12773;50.162;8.548;2022-11-12T03:05:04;7.50;99.90
24638;DHT22;12773;50.162;8.548;2022-11-12T03:07:56;7.40;99.90
24638;DHT22;12773;50.162;8.548;2022-11-12T03:10:44;7.30;99.90
24638;DHT22;12773;50.162;8.548;2022-11-12T03:13:31;7.40;99.90
24638;DHT22;12773;50.162;8.548;2022-11-12T03:16:19;7.30;99.90
24638;DHT22;12773;50.162;8.548;2022-11-12T03:19:06;7.20;99.90
24638;DHT22;12773;50.162;8.548;2022-11-12T03:21:53;7.20;99.90
24638;DHT22;12773;50.162;8.548;2022-11-12T03:24:40;7.30;99.90
24638;DHT22;12773;50.162;8.548;2022-11-12T03:27:28;7.20;99.90
24638;DHT22;12773;50.162;8.548;2022-11-12T03:30:15;7.20;99.90
24638;DHT22;12773;50.162;8.548;2022-11-12T03:33:03;7.10;99.90
24638;DHT22;12773;50.162;8.548;2022-11-12T03:35:51;7.20;99.90
24638;DHT22;12773;50.162;8.548;2022-11-12T03:38:38;7.30;99.90
24638;DHT22;12773;50.162;8.548;2022-11-12T03:41:25;7.30;99.90
24638;DHT22;12773;50.162;8.548;2022-11-12T03:44:13;7.30;99.90
24638;DHT22;12773;50.162;8.548;2022-11-12T03:47:00;7.30;99.90
24638;DHT22;12773;50.162;8.548;2022-11-12T03:49:47;7.40;99.90
24638;DHT22;12773;50.162;8.548;2022-11-12T03:52:35;7.50;99.90
24638;DHT22;12773;50.162;8.548;2022-11-12T03:55:24;7.40;99.90
24638;DHT22;12773;50.162;8.548;2022-11-12T03:58:11;7.50;99.90
24638;DHT22;12773;50.162;8.548;2022-11-12T04:00:58;7.50;99.90
24638;DHT22;12773;50.162;8.548;2022-11-12T04:03:46;7.60;99.90
24638;DHT22;12773;50.162;8.548;2022-11-12T04:06:34;7.60;99.90
24638;DHT22;12773;50.162;8.548;2022-11-12T04:09:39;7.60;99.90
24638;DHT22;12773;50.162;8.548;2022-11-12T04:12:27;7.60;99.90
24638;DHT22;12773;50.162;8.548;2022-11-12T04:15:32;7.70;99.90
24638;DHT22;12773;50.162;8.548;2022-11-12T04:18:19;7.80;99.90
24638;DHT22;12773;50.162;8.548;2022-11-12T04:21:32;7.80;99.90
24638;DHT22;12773;50.162;8.548;2022-11-12T04:24:35;7.80;99.90
24638;DHT22;12773;50.162;8.548;2022-11-12T04:27:41;7.80;99.90
24638;DHT22;12773;50.162;8.548;2022-11-12T04:30:28;7.80;99.90
24638;DHT22;12773;50.162;8.548;2022-11-12T04:33:16;7.80;99.90
24638;DHT22;12773;50.162;8.548;2022-11-12T04:36:03;7.80;99.90
24638;DHT22;12773;50.162;8.548;2022-11-12T04:38:53;7.80;99.90
24638;DHT22;12773;50.162;8.548;2022-11-12T04:41:41;7.80;99.90
24638;DHT22;12773;50.162;8.548;2022-11-12T04:44:46;7.90;99.90
24638;DHT22;12773;50.162;8.548;2022-11-12T04:47:50;7.90;99.90
24638;DHT22;12773;50.162;8.548;2022-11-12T04:50:38;7.90;99.90
24638;DHT22;12773;50.162;8.548;2022-11-12T04:53:26;8.00;99.90
24638;DHT22;12773;50.162;8.548;2022-11-12T04:56:14;8.00;99.90
24638;DHT22;12773;50.162;8.548;2022-11-12T04:59:01;8.00;99.90
24638;DHT22;12773;50.162;8.548;2022-11-12T05:01:49;8.00;99.90
24638;DHT22;12773;50.162;8.548;2022-11-12T05:04:36;8.00;99.90
24638;DHT22;12773;50.162;8.548;2022-11-12T05:07:24;8.10;99.90
24638;DHT22;12773;50.162;8.548;2022-11-12T05:10:11;8.20;99.90
24638;DHT22;12773;50.162;8.548;2022-11-12T05:12:59;8.10;99.90
24638;DHT22;12773;50.162;8.548;2022-11-12T05:15:46;8.20;99.90
24638;DHT22;12773;50.162;8.548;2022-11-12T05:18:34;8.20;99.90
24638;DHT22;12773;50.162;8.548;2022-11-12T05:21:21;8.20;99.90
24638;DHT22;12773;50.162;8.548;2022-11-12T05:24:28;8.20;99.90
24638;DHT22;12773;50.162;8.548;2022-11-12T05:27:19;8.30;99.90
24638;DHT22;12773;50.162;8.548;2022-11-12T05:30:07;8.20;99.90
24638;DHT22;12773;50.162;8.548;2022-11-12T05:32:55;8.20;99.90
24638;DHT22;12773;50.162;8.548;2022-11-12T05:35:42;8.20;99.90
24638;DHT22;12773;50.162;8.548;2022-11-12T05:38:30;8.10;99.90
24638;DHT22;12773;50.162;8.548;2022-11-12T05:41:17;8.00;99.90
24638;DHT22;12773;50.162;8.548;2022-11-12T05:44:05;8.10;99.90
24638;DHT22;12773;50.162;8.548;2022-11-12T05:46:53;8.10;99.90
24638;DHT22;12773;50.162;8.548;2022-11-12T05:49:41;8.10;99.90
24638;DHT22;12773;50.162;8.548;2022-11-12T05:52:28;8.10;99.90
24638;DHT22;12773;50.162;8.548;2022-11-12T05:55:15;8.10;99.90
24638;DHT22;12773;50.162;8.548;2022-11-12T05:58:05;8.10;99.90
24638;DHT22;12773;50.162;8.548;2022-11-12T06:00:52;8.00;99.90
24638;DHT22;12773;50.162;8.548;2022-11-12T06:03:39;8.00;99.90
24638;DHT22;12773;50.162;8.548;2022-11-12T06:06:26;8.00;99.90
24638;DHT22;12773;50.162;8.548;2022-11-12T06:09:14;8.00;99.90
24638;DHT22;12773;50.162;8.548;2022-11-12T06:12:01;8.00;99.90
24638;DHT22;12773;50.162;8.548;2022-11-12T06:14:51;8.10;99.90
24638;DHT22;12773;50.162;8.548;2022-11-12T06:17:38;8.00;99.90
24638;DHT22;12773;50.162;8.548;2022-11-12T06:20:25;7.90;99.90
24638;DHT22;12773;50.162;8.548;2022-11-12T06:23:13;7.80;99.90
24638;DHT22;12773;50.162;8.548;2022-11-12T06:26:00;7.80;99.90
24638;DHT22;12773;50.162;8.548;2022-11-12T06:28:48;7.90;99.90
24638;DHT22;12773;50.162;8.548;2022-11-12T06:31:36;7.90;99.90
24638;DHT22;12773;50.162;8.548;2022-11-12T06:34:23;7.80;99.90
24638;DHT22;12773;50.162;8.548;2022-11-12T06:37:10;7.80;99.90
24638;DHT22;12773;50.162;8.548;2022-11-12T06:39:57;7.80;99.90
24638;DHT22;12773;50.162;8.548;2022-11-12T06:42:45;7.70;99.90
24638;DHT22;12773;50.162;8.548;2022-11-12T06:45:32;7.70;99.90
24638;DHT22;12773;50.162;8.548;2022-11-12T06:48:20;7.80;99.90
24638;DHT22;12773;50.162;8.548;2022-11-12T06:51:15;7.70;99.90
24638;DHT22;12773;50.162;8.548;2022-11-12T06:53:57;7.60;99.90
24638;DHT22;12773;50.162;8.548;2022-11-12T06:56:45;7.60;99.90
24638;DHT22;12773;50.162;8.548;2022-11-12T06:59:32;7.60;99.90
24638;DHT22;12773;50.162;8.548;2022-11-12T07:02:19;7.70;99.90
24638;DHT22;12773;50.162;8.548;2022-11-12T07:05:07;7.70;99.90
24638;DHT22;12773;50.162;8.548;2022-11-12T07:07:54;7.60;99.90
24638;DHT22;12773;50.162;8.548;2022-11-12T07:10:41;7.70;99.90
24638;DHT22;12773;50.162;8.548;2022-11-12T07:13:30;7.80;99.90
24638;DHT22;12773;50.162;8.548;2022-11-12T07:16:18;7.60;99.90
24638;DHT22;12773;50.162;8.548;2022-11-12T07:19:11;7.70;99.90
24638;DHT22;12773;50.162;8.548;2022-11-12T07:21:58;7.60;99.90
24638;DHT22;12773;50.162;8.548;2022-11-12T07:24:45;7.60;99.90
24638;DHT22;12773;50.162;8.548;2022-11-12T07:27:33;7.60;99.90
24638;DHT22;12773;50.162;8.548;2022-11-12T07:30:20;7.50;99.90
24638;DHT22;12773;50.162;8.548;2022-11-12T07:33:08;7.50;99.90
24638;DHT22;12773;50.162;8.548;2022-11-12T07:36:00;7.50;99.90
24638;DHT22;12773;50.162;8.548;2022-11-12T07:38:50;7.60;99.90
24638;DHT22;12773;50.162;8.548;2022-11-12T07:41:38;7.70;99.90
24638;DHT22;12773;50.162;8.548;2022-11-12T07:44:25;7.80;99.90
24638;DHT22;12773;50.162;8.548;2022-11-12T07:47:13;7.80;99.90
24638;DHT22;12773;50.162;8.548;2022-11-12T07:50:00;7.90;99.90
24638;DHT22;12773;50.162;8.548;2022-11-12T07:52:47;7.90;99.90
24638;DHT22;12773;50.162;8.548;2022-11-12T07:55:35;8.10;99.90
24638;DHT22;12773;50.162;8.548;2022-11-12T07:58:23;8.20;99.90
24638;DHT22;12773;50.162;8.548;2022-11-12T08:01:22;8.30;99.90
24638;DHT22;12773;50.162;8.548;2022-11-12T08:04:09;8.40;99.90
24638;DHT22;12773;50.162;8.548;2022-11-12T08:06:58;8.40;99.90
24638;DHT22;12773;50.162;8.548;2022-11-12T08:09:46;8.50;99.90
24638;DHT22;12773;50.162;8.548;2022-11-12T08:12:34;8.50;99.90
24638;DHT22;12773;50.162;8.548;2022-11-12T08:15:21;8.60;99.90
24638;DHT22;12773;50.162;8.548;2022-11-12T08:18:09;8.80;99.90
24638;DHT22;12773;50.162;8.548;2022-11-12T08:21:00;8.80;99.90
24638;DHT22;12773;50.162;8.548;2022-11-12T08:23:47;8.80;99.90
24638;DHT22;12773;50.162;8.548;2022-11-12T08:26:34;8.90;99.90
24638;DHT22;12773;50.162;8.548;2022-11-12T08:29:22;8.70;99.90
24638;DHT22;12773;50.162;8.548;2022-11-12T08:32:09;8.80;99.90
24638;DHT22;12773;50.162;8.548;2022-11-12T08:34:57;9.00;99.90
24638;DHT22;12773;50.162;8.548;2022-11-12T08:37:44;9.20;99.90
24638;DHT22;12773;50.162;8.548;2022-11-12T08:40:32;9.40;99.90
24638;DHT22;12773;50.162;8.548;2022-11-12T08:43:21;9.50;99.90
24638;DHT22;12773;50.162;8.548;2022-11-12T08:46:09;9.70;99.90
24638;DHT22;12773;50.162;8.548;2022-11-12T08:48:56;9.80;99.90
24638;DHT22;12773;50.162;8.548;2022-11-12T08:51:44;9.70;99.90
24638;DHT22;12773;50.162;8.548;2022-11-12T08:54:31;9.60;99.90
24638;DHT22;12773;50.162;8.548;2022-11-12T08:57:19;9.60;99.90
24638;DHT22;12773;50.162;8.548;2022-11-12T09:00:07;9.70;99.90
24638;DHT22;12773;50.162;8.548;2022-11-12T09:02:55;9.70;99.90
24638;DHT22;12773;50.162;8.548;2022-11-12T09:05:44;9.80;99.90
24638;DHT22;12773;50.162;8.548;2022-11-12T09:08:33;9.80;99.90
24638;DHT22;12773;50.162;8.548;2022-11-12T09:11:21;9.80;99.90
24638;DHT22;12773;50.162;8.548;2022-11-12T09:14:08;10.00;99.90
24638;DHT22;12773;50.162;8.548;2022-11-12T09:16:56;10.00;99.90
24638;DHT22;12773;50.162;8.548;2022-11-12T09:19:43;9.90;99.90
24638;DHT22;12773;50.162;8.548;2022-11-12T09:22:31;9.90;99.90
24638;DHT22;12773;50.162;8.548;2022-11-12T09:25:18;9.60;99.90
24638;DHT22;12773;50.162;8.548;2022-11-12T09:28:15;9.30;99.90
24638;DHT22;12773;50.162;8.548;2022-11-12T09:31:02;9.50;99.90
24638;DHT22;12773;50.162;8.548;2022-11-12T09:33:49;9.80;99.90
24638;DHT22;12773;50.162;8.548;2022-11-12T09:36:37;9.80;99.90
24638;DHT22;12773;50.162;8.548;2022-11-12T09:39:25;9.90;99.90
24638;DHT22;12773;50.162;8.548;2022-11-12T09:42:15;10.00;99.90
24638;DHT22;12773;50.162;8.548;2022-11-12T09:45:12;9.80;99.90
24638;DHT22;12773;50.162;8.548;2022-11-12T09:48:05;9.80;99.90
24638;DHT22;12773;50.162;8.548;2022-11-12T09:51:20;9.90;99.90
24638;DHT22;12773;50.162;8.548;2022-11-12T09:54:15;9.90;99.90
24638;DHT22;12773;50.162;8.548;2022-11-12T09:57:01;9.40;99.90
24638;DHT22;12773;50.162;8.548;2022-11-12T09:59:48;9.30;99.90
24638;DHT22;12773;50.162;8.548;2022-11-12T10:02:46;9.40;99.90
24638;DHT22;12773;50.162;8.548;2022-11-12T10:05:37;9.40;99.90
24638;DHT22;12773;50.162;8.548;2022-11-12T10:08:42;9.40;99.90
24638;DHT22;12773;50.162;8.548;2022-11-12T10:15:00;9.20;99.90
24638;DHT22;12773;50.162;8.548;2022-11-12T10:18:05;9.20;99.90
24638;DHT22;12773;50.162;8.548;2022-11-12T10:20:58;9.40;99.90
24638;DHT22;12773;50.162;8.548;2022-11-12T10:23:44;9.60;99.90
24638;DHT22;12773;50.162;8.548;2022-11-12T10:26:32;9.80;99.90
24638;DHT22;12773;50.162;8.548;2022-11-12T10:29:28;10.00;99.90
24638;DHT22;12773;50.162;8.548;2022-11-12T10:32:16;10.10;99.90
24638;DHT22;12773;50.162;8.548;2022-11-12T10:35:03;10.30;99.90
24638;DHT22;12773;50.162;8.548;2022-11-12T10:38:05;10.00;99.90
24638;DHT22;12773;50.162;8.548;2022-11-12T10:40:53;9.90;99.90
24638;DHT22;12773;50.162;8.548;2022-11-12T10:43:51;10.00;99.90
24638;DHT22;12773;50.162;8.548;2022-11-12T10:46:35;10.10;99.90
24638;DHT22;12773;50.162;8.548;2022-11-12T10:49:24;10.30;99.90
24638;DHT22;12773;50.162;8.548;2022-11-12T10:52:20;10.30;99.90
24638;DHT22;12773;50.162;8.548;2022-11-12T10:55:23;10.40;99.90
24638;DHT22;12773;50.162;8.548;2022-11-12T10:58:13;10.60;99.90
24638;DHT22;12773;50.162;8.548;2022-11-12T11:01:12;10.60;99.90
24638;DHT22;12773;50.162;8.548;2022-11-12T11:04:00;10.70;99.90
24638;DHT22;12773;50.162;8.548;2022-11-12T11:06:56;10.90;99.90
24638;DHT22;12773;50.162;8.548;2022-11-12T11:09:51;11.00;99.90
24638;DHT22;12773;50.162;8.548;2022-11-12T11:12:35;11.10;99.90
24638;DHT22;12773;50.162;8.548;2022-11-12T11:15:21;11.20;99.90
24638;DHT22;12773;50.162;8.548;2022-11-12T11:18:12;11.20;99.90
24638;DHT22;12773;50.162;8.548;2022-11-12T11:27:31;11.20;99.90
24638;DHT22;12773;50.162;8.548;2022-11-12T11:30:17;11.30;99.90
24638;DHT22;12773;50.162;8.548;2022-11-12T11:36:38;11.20;99.90
24638;DHT22;12773;50.162;8.548;2022-11-12T11:39:33;11.30;99.90
24638;DHT22;12773;50.162;8.548;2022-11-12T11:42:39;11.30;99.90
24638;DHT22;12773;50.162;8.548;2022-11-12T11:45:28;11.30;99.90
24638;DHT22;12773;50.162;8.548;2022-11-12T11:48:24;11.10;99.90
24638;DHT22;12773;50.162;8.548;2022-11-12T11:51:18;11.30;99.90
24638;DHT22;12773;50.162;8.548;2022-11-12T11:57:04;11.50;99.90
24638;DHT22;12773;50.162;8.548;2022-11-12T12:06:18;11.60;99.90
24638;DHT22;12773;50.162;8.548;2022-11-12T12:12:16;11.40;99.90
24638;DHT22;12773;50.162;8.548;2022-11-12T12:15:16;11.50;99.90
24638;DHT22;12773;50.162;8.548;2022-11-12T12:18:22;11.50;99.90
24638;DHT22;12773;50.162;8.548;2022-11-12T12:21:19;11.40;99.90
24638;DHT22;12773;50.162;8.548;2022-11-12T12:24:14;11.40;99.90
24638;DHT22;12773;50.162;8.548;2022-11-12T12:27:13;11.60;99.90
24638;DHT22;12773;50.162;8.548;2022-11-12T12:30:26;11.70;99.90
24638;DHT22;12773;50.162;8.548;2022-11-12T12:33:02;11.40;99.90
24638;DHT22;12773;50.162;8.548;2022-11-12T12:35:58;11.50;99.90
24638;DHT22;12773;50.162;8.548;2022-11-12T12:39:13;11.60;99.90
24638;DHT22;12773;50.162;8.548;2022-11-12T12:44:59;11.50;99.90
24638;DHT22;12773;50.162;8.548;2022-11-12T12:47:49;11.60;99.90
24638;DHT22;12773;50.162;8.548;2022-11-12T12:50:39;11.50;99.90
24638;DHT22;12773;50.162;8.548;2022-11-12T12:53:31;11.50;99.90
24638;DHT22;12773;50.162;8.548;2022-11-12T12:59:20;11.30;99.90
24638;DHT22;12773;50.162;8.548;2022-11-12T13:02:18;11.50;99.90
24638;DHT22;12773;50.162;8.548;2022-11-12T13:05:02;11.50;99.90
24638;DHT22;12773;50.162;8.548;2022-11-12T13:07:51;11.70;99.90
24638;DHT22;12773;50.162;8.548;2022-11-12T13:13:35;11.80;99.90
24638;DHT22;12773;50.162;8.548;2022-11-12T13:22:47;11.80;99.90
24638;DHT22;12773;50.162;8.548;2022-11-12T13:25:35;11.70;99.90
24638;DHT22;12773;50.162;8.548;2022-11-12T13:28:23;11.70;99.90
24638;DHT22;12773;50.162;8.548;2022-11-12T13:31:26;11.70;99.90
24638;DHT22;12773;50.162;8.548;2022-11-12T13:34:19;11.70;99.90
24638;DHT22;12773;50.162;8.548;2022-11-12T13:37:13;11.80;99.90
24638;DHT22;12773;50.162;8.548;2022-11-12T13:40:01;11.90;99.90
24638;DHT22;12773;50.162;8.548;2022-11-12T13:42:48;11.90;99.90
24638;DHT22;12773;50.162;8.548;2022-11-12T13:49:01;11.70;99.90
24638;DHT22;12773;50.162;8.548;2022-11-12T13:51:51;11.70;99.90
24638;DHT22;12773;50.162;8.548;2022-11-12T13:54:41;11.60;99.90
24638;DHT22;12773;50.162;8.548;2022-11-12T13:57:31;11.70;99.90
24638;DHT22;12773;50.162;8.548;2022-11-12T14:00:21;11.70;99.90
24638;DHT22;12773;50.162;8.548;2022-11-12T14:03:12;11.80;99.90
24638;DHT22;12773;50.162;8.548;2022-11-12T14:06:03;11.90;99.90
24638;DHT22;12773;50.162;8.548;2022-11-12T14:09:05;12.00;99.90
24638;DHT22;12773;50.162;8.548;2022-11-12T14:12:08;12.00;99.90
24638;DHT22;12773;50.162;8.548;2022-11-12T14:15:19;12.00;99.90
24638;DHT22;12773;50.162;8.548;2022-11-12T14:18:12;12.10;99.90
24638;DHT22;12773;50.162;8.548;2022-11-12T14:21:05;11.80;99.90
24638;DHT22;12773;50.162;8.548;2022-11-12T14:23:49;11.50;99.90
24638;DHT22;12773;50.162;8.548;2022-11-12T14:26:39;11.30;99.90
24638;DHT22;12773;50.162;8.548;2022-11-12T14:29:27;11.20;99.90
24638;DHT22;12773;50.162;8.548;2022-11-12T14:32:17;11.30;99.90
24638;DHT22;12773;50.162;8.548;2022-11-12T14:35:32;11.20;99.90
24638;DHT22;12773;50.162;8.548;2022-11-12T14:38:28;11.40;99.90
24638;DHT22;12773;50.162;8.548;2022-11-12T14:41:21;11.10;99.90
24638;DHT22;12773;50.162;8.548;2022-11-12T14:44:13;11.20;99.90
24638;DHT22;12773;50.162;8.548;2022-11-12T14:46:59;11.20;99.90
24638;DHT22;12773;50.162;8.548;2022-11-12T14:49:49;11.20;99.90
24638;DHT22;12773;50.162;8.548;2022-11-12T14:52:39;11.30;99.90
24638;DHT22;12773;50.162;8.548;2022-11-12T14:55:29;11.30;99.90
24638;DHT22;12773;50.162;8.548;2022-11-12T14:58:19;11.40;99.90
24638;DHT22;12773;50.162;8.548;2022-11-12T15:01:24;11.50;99.90
24638;DHT22;12773;50.162;8.548;2022-11-12T15:04:21;11.50;99.90
24638;DHT22;12773;50.162;8.548;2022-11-12T15:07:25;11.20;99.90
24638;DHT22;12773;50.162;8.548;2022-11-12T15:10:30;10.90;99.90
24638;DHT22;12773;50.162;8.548;2022-11-12T15:13:20;10.90;99.90
24638;DHT22;12773;50.162;8.548;2022-11-12T15:16:09;10.80;99.90
24638;DHT22;12773;50.162;8.548;2022-11-12T15:19:04;10.70;99.90
24638;DHT22;12773;50.162;8.548;2022-11-12T15:21:53;10.60;99.90
24638;DHT22;12773;50.162;8.548;2022-11-12T15:24:41;10.40;99.90
24638;DHT22;12773;50.162;8.548;2022-11-12T15:27:37;10.40;99.90
24638;DHT22;12773;50.162;8.548;2022-11-12T15:30:29;10.40;99.90
24638;DHT22;12773;50.162;8.548;2022-11-12T15:33:24;10.40;99.90
24638;DHT22;12773;50.162;8.548;2022-11-12T15:36:20;10.30;99.90
24638;DHT22;12773;50.162;8.548;2022-11-12T15:39:03;10.30;99.90
24638;DHT22;12773;50.162;8.548;2022-11-12T15:42:05;10.20;99.90
24638;DHT22;12773;50.162;8.548;2022-11-12T15:45:00;10.30;99.90
24638;DHT22;12773;50.162;8.548;2022-11-12T15:47:46;10.40;99.90
24638;DHT22;12773;50.162;8.548;2022-11-12T15:50:34;10.40;99.90
24638;DHT22;12773;50.162;8.548;2022-11-12T15:53:21;10.50;99.90
24638;DHT22;12773;50.162;8.548;2022-11-12T15:56:11;10.30;99.90
24638;DHT22;12773;50.162;8.548;2022-11-12T15:59:00;10.30;99.90
24638;DHT22;12773;50.162;8.548;2022-11-12T16:01:47;10.30;99.90
24638;DHT22;12773;50.162;8.548;2022-11-12T16:04:35;10.30;99.90
24638;DHT22;12773;50.162;8.548;2022-11-12T16:07:22;10.30;99.90
24638;DHT22;12773;50.162;8.548;2022-11-12T16:10:14;10.30;99.90
24638;DHT22;12773;50.162;8.548;2022-11-12T16:13:03;10.30;99.90
24638;DHT22;12773;50.162;8.548;2022-11-12T16:15:51;10.20;99.90
24638;DHT22;12773;50.162;8.548;2022-11-12T16:18:39;10.30;99.90
24638;DHT22;12773;50.162;8.548;2022-11-12T16:21:26;10.30;99.90
24638;DHT22;12773;50.162;8.548;2022-11-12T16:24:14;10.40;99.90
24638;DHT22;12773;50.162;8.548;2022-11-12T16:27:03;10.40;99.90
24638;DHT22;12773;50.162;8.548;2022-11-12T16:29:52;10.30;99.90
24638;DHT22;12773;50.162;8.548;2022-11-12T16:32:39;10.20;99.90
24638;DHT22;12773;50.162;8.548;2022-11-12T16:35:27;10.10;99.90
24638;DHT22;12773;50.162;8.548;2022-11-12T16:38:17;10.10;99.90
24638;DHT22;12773;50.162;8.548;2022-11-12T16:41:04;10.00;99.90
24638;DHT22;12773;50.162;8.548;2022-11-12T16:43:52;10.00;99.90
24638;DHT22;12773;50.162;8.548;2022-11-12T16:46:39;10.00;99.90
24638;DHT22;12773;50.162;8.548;2022-11-12T16:49:26;10.00;99.90
24638;DHT22;12773;50.162;8.548;2022-11-12T16:52:13;10.20;99.90
24638;DHT22;12773;50.162;8.548;2022-11-12T16:55:01;10.20;99.90
24638;DHT22;12773;50.162;8.548;2022-11-12T16:57:50;10.30;99.90
24638;DHT22;12773;50.162;8.548;2022-11-12T17:00:40;10.30;99.90
24638;DHT22;12773;50.162;8.548;2022-11-12T17:03:29;10.30;99.90
24638;DHT22;12773;50.162;8.548;2022-11-12T17:06:16;10.30;99.90
24638;DHT22;12773;50.162;8.548;2022-11-12T17:09:04;10.40;99.90
24638;DHT22;12773;50.162;8.548;2022-11-12T17:11:52;10.40;99.90
24638;DHT22;12773;50.162;8.548;2022-11-12T17:14:40;10.40;99.90
24638;DHT22;12773;50.162;8.548;2022-11-12T17:17:27;10.30;99.90
24638;DHT22;12773;50.162;8.548;2022-11-12T17:20:15;10.40;99.90
24638;DHT22;12773;50.162;8.548;2022-11-12T17:23:02;10.40;99.90
24638;DHT22;12773;50.162;8.548;2022-11-12T17:25:58;10.30;99.90
24638;DHT22;12773;50.162;8.548;2022-11-12T17:28:39;10.30;99.90
24638;DHT22;12773;50.162;8.548;2022-11-12T17:31:27;10.30;99.90
24638;DHT22;12773;50.162;8.548;2022-11-12T17:34:14;10.30;99.90
24638;DHT22;12773;50.162;8.548;2022-11-12T17:37:02;10.30;99.90
24638;DHT22;12773;50.162;8.548;2022-11-12T17:39:49;10.30;99.90
24638;DHT22;12773;50.162;8.548;2022-11-12T17:42:37;10.30;99.90
24638;DHT22;12773;50.162;8.548;2022-11-12T17:45:24;10.40;99.90
24638;DHT22;12773;50.162;8.548;2022-11-12T17:48:11;10.40;99.90
24638;DHT22;12773;50.162;8.548;2022-11-12T17:51:13;10.30;99.90
24638;DHT22;12773;50.162;8.548;2022-11-12T17:54:01;10.30;99.90
24638;DHT22;12773;50.162;8.548;2022-11-12T17:56:48;10.30;99.90
24638;DHT22;12773;50.162;8.548;2022-11-12T17:59:35;10.30;99.90
24638;DHT22;12773;50.162;8.548;2022-11-12T18:02:23;10.30;99.90
24638;DHT22;12773;50.162;8.548;2022-11-12T18:05:10;10.30;99.90
24638;DHT22;12773;50.162;8.548;2022-11-12T18:07:57;10.20;99.90
24638;DHT22;12773;50.162;8.548;2022-11-12T18:10:45;10.30;99.90
24638;DHT22;12773;50.162;8.548;2022-11-12T18:13:32;10.30;99.90
24638;DHT22;12773;50.162;8.548;2022-11-12T18:16:25;10.20;99.90
24638;DHT22;12773;50.162;8.548;2022-11-12T18:19:13;10.10;99.90
24638;DHT22;12773;50.162;8.548;2022-11-12T18:22:01;10.00;99.90
24638;DHT22;12773;50.162;8.548;2022-11-12T18:24:48;9.90;99.90
24638;DHT22;12773;50.162;8.548;2022-11-12T18:27:37;9.90;99.90
24638;DHT22;12773;50.162;8.548;2022-11-12T18:30:26;10.00;99.90
24638;DHT22;12773;50.162;8.548;2022-11-12T18:33:13;10.00;99.90
24638;DHT22;12773;50.162;8.548;2022-11-12T18:36:08;10.00;99.90
24638;DHT22;12773;50.162;8.548;2022-11-12T18:38:52;10.00;99.90
24638;DHT22;12773;50.162;8.548;2022-11-12T18:41:40;10.00;99.90
24638;DHT22;12773;50.162;8.548;2022-11-12T18:44:27;10.00;99.90
24638;DHT22;12773;50.162;8.548;2022-11-12T18:47:15;9.90;99.90